sensor_id;sensor_type;location;lat;lon;timestamp;pressure;altitude;pressure_sealevel;temperature;humidity
61697;BME280;47610;52.252;20.922;2022-12-18T00:03:27;101571.38;;;-4.37;100.00
61697;BME280;47610;52.252;20.922;2022-12-18T00:08:51;101574.52;;;-4.32;100.00
61697;BME280;47610;52.252;20.922;2022-12-18T00:14:16;101582.48;;;-4.28;100.00
61697;BME280;47610;52.252;20.922;2022-12-18T00:19:38;101589.31;;;-4.22;100.00
61697;BME280;47610;52.252;20.922;2022-12-18T00:25:00;101595.78;;;-4.19;100.00
61697;BME280;47610;52.252;20.922;2022-12-18T00:30:25;101599.20;;;-4.13;100.00
61697;BME280;47610;52.252;20.922;2022-12-18T00:35:48;101607.80;;;-4.08;100.00
61697;BME280;47610;52.252;20.922;2022-12-18T00:41:12;101610.92;;;-4.03;100.00
61697;BME280;47610;52.252;20.922;2022-12-18T00:46:37;101623.15;;;-4.00;100.00
61697;BME280;47610;52.252;20.922;2022-12-18T00:52:02;101628.84;;;-3.99;100.00
61697;BME280;47610;52.252;20.922;2022-12-18T00:57:24;101631.50;;;-3.99;100.00
61697;BME280;47610;52.252;20.922;2022-12-18T01:02:46;101638.33;;;-3.99;100.00
61697;BME280;47610;52.252;20.922;2022-12-18T01:08:09;101640.65;;;-3.99;100.00
61697;BME280;47610;52.252;20.922;2022-12-18T01:13:31;101642.58;;;-4.02;100.00
61697;BME280;47610;52.252;20.922;2022-12-18T01:18:56;101645.19;;;-4.05;100.00
61697;BME280;47610;52.252;20.922;2022-12-18T01:24:17;101657.73;;;-4.05;100.00
61697;BME280;47610;52.252;20.922;2022-12-18T01:34:54;101663.75;;;-4.02;100.00
61697;BME280;47610;52.252;20.922;2022-12-18T01:40:16;101683.84;;;-4.03;100.00
61697;BME280;47610;52.252;20.922;2022-12-18T01:45:38;101687.00;;;-3.98;100.00
61697;BME280;47610;52.252;20.922;2022-12-18T01:51:00;101696.08;;;-3.97;100.00
61697;BME280;47610;52.252;20.922;2022-12-18T01:56:23;101699.95;;;-3.98;100.00
61697;BME280;47610;52.252;20.922;2022-12-18T02:01:47;101700.77;;;-4.01;100.00
61697;BME280;47610;52.252;20.922;2022-12-18T02:07:13;101712.20;;;-4.08;100.00
61697;BME280;47610;52.252;20.922;2022-12-18T02:12:45;101719.86;;;-4.13;100.00
61697;BME280;47610;52.252;20.922;2022-12-18T02:18:12;101726.94;;;-4.12;100.00
61697;BME280;47610;52.252;20.922;2022-12-18T02:23:49;101733.48;;;-4.10;100.00
61697;BME280;47610;52.252;20.922;2022-12-18T02:29:15;101746.38;;;-4.07;100.00
61697;BME280;47610;52.252;20.922;2022-12-18T02:34:39;101747.48;;;-4.08;100.00
61697;BME280;47610;52.252;20.922;2022-12-18T02:40:01;101752.94;;;-4.07;100.00
61697;BME280;47610;52.252;20.922;2022-12-18T02:45:24;101760.59;;;-4.06;100.00
61697;BME280;47610;52.252;20.922;2022-12-18T02:50:53;101763.94;;;-4.07;100.00
61697;BME280;47610;52.252;20.922;2022-12-18T02:56:25;101766.98;;;-4.07;100.00
61697;BME280;47610;52.252;20.922;2022-12-18T03:01:54;101782.39;;;-4.03;100.00
61697;BME280;47610;52.252;20.922;2022-12-18T03:07:21;101796.61;;;-4.02;100.00
61697;BME280;47610;52.252;20.922;2022-12-18T03:12:50;101810.54;;;-4.02;100.00
61697;BME280;47610;52.252;20.922;2022-12-18T03:26:25;101825.17;;;-4.05;100.00
61697;BME280;47610;52.252;20.922;2022-12-18T03:31:53;101827.73;;;-4.07;100.00
61697;BME280;47610;52.252;20.922;2022-12-18T03:37:18;101840.24;;;-4.03;100.00
61697;BME280;47610;52.252;20.922;2022-12-18T03:42:47;101839.02;;;-3.99;100.00
61697;BME280;47610;52.252;20.922;2022-12-18T03:48:18;101845.10;;;-3.97;100.00
61697;BME280;47610;52.252;20.922;2022-12-18T03:53:44;101847.60;;;-3.99;100.00
61697;BME280;47610;52.252;20.922;2022-12-18T03:59:12;101851.88;;;-4.01;100.00
61697;BME280;47610;52.252;20.922;2022-12-18T04:04:39;101857.32;;;-4.07;100.00
61697;BME280;47610;52.252;20.922;2022-12-18T04:10:07;101862.49;;;-4.10;100.00
61697;BME280;47610;52.252;20.922;2022-12-18T04:15:31;101874.58;;;-4.07;100.00
61697;BME280;47610;52.252;20.922;2022-12-18T04:20:54;101888.47;;;-4.12;100.00
61697;BME280;47610;52.252;20.922;2022-12-18T04:26:17;101898.98;;;-4.20;100.00
61697;BME280;47610;52.252;20.922;2022-12-18T04:31:42;101900.84;;;-4.22;100.00
61697;BME280;47610;52.252;20.922;2022-12-18T04:37:05;101906.96;;;-4.28;100.00
61697;BME280;47610;52.252;20.922;2022-12-18T04:42:28;101912.42;;;-4.41;100.00
61697;BME280;47610;52.252;20.922;2022-12-18T04:47:51;101918.24;;;-4.59;100.00
61697;BME280;47610;52.252;20.922;2022-12-18T04:53:14;101919.08;;;-4.79;100.00
61697;BME280;47610;52.252;20.922;2022-12-18T04:58:37;101929.02;;;-4.94;100.00
61697;BME280;47610;52.252;20.922;2022-12-18T05:04:00;101933.14;;;-5.04;100.00
61697;BME280;47610;52.252;20.922;2022-12-18T05:09:23;101942.52;;;-5.15;100.00
61697;BME280;47610;52.252;20.922;2022-12-18T05:14:45;101957.30;;;-5.24;100.00
61697;BME280;47610;52.252;20.922;2022-12-18T05:20:12;101968.70;;;-5.26;100.00
61697;BME280;47610;52.252;20.922;2022-12-18T05:25:34;101979.71;;;-5.23;100.00
61697;BME280;47610;52.252;20.922;2022-12-18T05:30:59;101988.42;;;-5.18;100.00
61697;BME280;47610;52.252;20.922;2022-12-18T05:36:21;101993.45;;;-5.14;100.00
61697;BME280;47610;52.252;20.922;2022-12-18T05:47:05;102002.48;;;-5.03;100.00
61697;BME280;47610;52.252;20.922;2022-12-18T05:52:27;102008.14;;;-4.95;100.00
61697;BME280;47610;52.252;20.922;2022-12-18T05:57:50;102013.49;;;-4.95;100.00
61697;BME280;47610;52.252;20.922;2022-12-18T06:03:13;102014.44;;;-4.92;100.00
61697;BME280;47610;52.252;20.922;2022-12-18T06:08:36;102018.08;;;-4.87;100.00
61697;BME280;47610;52.252;20.922;2022-12-18T06:13:58;102026.88;;;-4.83;100.00
61697;BME280;47610;52.252;20.922;2022-12-18T06:19:22;102033.88;;;-4.79;100.00
61697;BME280;47610;52.252;20.922;2022-12-18T06:24:45;102049.16;;;-4.75;100.00
61697;BME280;47610;52.252;20.922;2022-12-18T06:30:15;102059.41;;;-4.70;100.00
61697;BME280;47610;52.252;20.922;2022-12-18T06:35:39;102069.58;;;-4.67;100.00
61697;BME280;47610;52.252;20.922;2022-12-18T06:41:02;102082.88;;;-4.62;100.00
61697;BME280;47610;52.252;20.922;2022-12-18T06:46:28;102088.20;;;-4.52;100.00
61697;BME280;47610;52.252;20.922;2022-12-18T06:51:51;102096.45;;;-4.49;100.00
61697;BME280;47610;52.252;20.922;2022-12-18T06:57:14;102112.10;;;-4.45;100.00
61697;BME280;47610;52.252;20.922;2022-12-18T07:02:37;102118.77;;;-4.42;100.00
61697;BME280;47610;52.252;20.922;2022-12-18T07:08:00;102122.13;;;-4.41;100.00
61697;BME280;47610;52.252;20.922;2022-12-18T07:14:54;102131.39;;;-4.32;100.00
61697;BME280;47610;52.252;20.922;2022-12-18T07:20:18;102136.29;;;-4.23;100.00
61697;BME280;47610;52.252;20.922;2022-12-18T07:25:41;102142.39;;;-4.12;100.00
61697;BME280;47610;52.252;20.922;2022-12-18T07:31:07;102145.46;;;-4.07;100.00
61697;BME280;47610;52.252;20.922;2022-12-18T07:36:31;102154.77;;;-4.01;100.00
61697;BME280;47610;52.252;20.922;2022-12-18T07:41:54;102160.39;;;-3.92;100.00
61697;BME280;47610;52.252;20.922;2022-12-18T07:47:17;102162.30;;;-3.81;100.00
61697;BME280;47610;52.252;20.922;2022-12-18T07:52:39;102179.65;;;-3.78;100.00
61697;BME280;47610;52.252;20.922;2022-12-18T07:58:04;102187.38;;;-3.82;100.00
61697;BME280;47610;52.252;20.922;2022-12-18T08:03:25;102198.59;;;-3.81;100.00
61697;BME280;47610;52.252;20.922;2022-12-18T08:08:47;102206.64;;;-3.69;100.00
61697;BME280;47610;52.252;20.922;2022-12-18T08:14:10;102219.80;;;-3.62;100.00
61697;BME280;47610;52.252;20.922;2022-12-18T08:19:32;102223.40;;;-3.60;100.00
61697;BME280;47610;52.252;20.922;2022-12-18T08:24:56;102220.54;;;-3.50;100.00
61697;BME280;47610;52.252;20.922;2022-12-18T08:30:18;102237.48;;;-3.45;100.00
61697;BME280;47610;52.252;20.922;2022-12-18T08:35:41;102248.48;;;-3.37;100.00
61697;BME280;47610;52.252;20.922;2022-12-18T08:41:07;102259.49;;;-3.30;100.00
61697;BME280;47610;52.252;20.922;2022-12-18T08:46:35;102256.61;;;-3.28;100.00
61697;BME280;47610;52.252;20.922;2022-12-18T08:51:59;102257.55;;;-3.26;100.00
61697;BME280;47610;52.252;20.922;2022-12-18T08:57:21;102266.03;;;-3.19;100.00
61697;BME280;47610;52.252;20.922;2022-12-18T09:02:44;102266.91;;;-3.07;100.00
61697;BME280;47610;52.252;20.922;2022-12-18T09:08:07;102264.88;;;-2.94;100.00
61697;BME280;47610;52.252;20.922;2022-12-18T09:13:31;102281.56;;;-2.82;100.00
61697;BME280;47610;52.252;20.922;2022-12-18T09:18:56;102280.11;;;-2.86;100.00
61697;BME280;47610;52.252;20.922;2022-12-18T09:24:20;102286.20;;;-2.84;100.00
61697;BME280;47610;52.252;20.922;2022-12-18T09:34:15;102287.89;;;-2.67;100.00
61697;BME280;47610;52.252;20.922;2022-12-18T09:39:39;102292.09;;;-2.52;100.00
61697;BME280;47610;52.252;20.922;2022-12-18T09:45:02;102289.43;;;-2.58;100.00
61697;BME280;47610;52.252;20.922;2022-12-18T09:50:31;102290.40;;;-2.59;100.00
61697;BME280;47610;52.252;20.922;2022-12-18T09:55:57;102296.75;;;-2.68;100.00
61697;BME280;47610;52.252;20.922;2022-12-18T10:01:23;102298.95;;;-2.62;100.00
61697;BME280;47610;52.252;20.922;2022-12-18T10:06:50;102304.95;;;-2.48;100.00
61697;BME280;47610;52.252;20.922;2022-12-18T10:12:23;102315.81;;;-2.41;100.00
61697;BME280;47610;52.252;20.922;2022-12-18T10:17:54;102321.20;;;-2.39;100.00
61697;BME280;47610;52.252;20.922;2022-12-18T10:23:25;102327.34;;;-2.37;100.00
61697;BME280;47610;52.252;20.922;2022-12-18T10:28:54;102322.91;;;-2.44;100.00
61697;BME280;47610;52.252;20.922;2022-12-18T10:34:16;102314.59;;;-2.33;100.00
61697;BME280;47610;52.252;20.922;2022-12-18T10:39:38;102310.61;;;-2.27;100.00
61697;BME280;47610;52.252;20.922;2022-12-18T10:45:12;102306.87;;;-2.22;100.00
61697;BME280;47610;52.252;20.922;2022-12-18T10:50:36;102306.04;;;-2.09;100.00
61697;BME280;47610;52.252;20.922;2022-12-18T10:56:00;102303.45;;;-1.99;100.00
61697;BME280;47610;52.252;20.922;2022-12-18T11:01:23;102311.33;;;-2.01;100.00
61697;BME280;47610;52.252;20.922;2022-12-18T11:07:00;102316.30;;;-2.04;100.00
61697;BME280;47610;52.252;20.922;2022-12-18T11:12:24;102315.58;;;-1.94;100.00
61697;BME280;47610;52.252;20.922;2022-12-18T11:17:49;102314.09;;;-1.86;100.00
61697;BME280;47610;52.252;20.922;2022-12-18T11:23:14;102309.50;;;-1.78;100.00
61697;BME280;47610;52.252;20.922;2022-12-18T11:28:43;102316.88;;;-1.74;100.00
61697;BME280;47610;52.252;20.922;2022-12-18T11:34:12;102320.50;;;-1.80;100.00
61697;BME280;47610;52.252;20.922;2022-12-18T11:39:39;102323.58;;;-1.82;100.00
61697;BME280;47610;52.252;20.922;2022-12-18T12:01:46;102330.40;;;-1.50;100.00
61697;BME280;47610;52.252;20.922;2022-12-18T12:07:21;102338.15;;;-1.33;100.00
61697;BME280;47610;52.252;20.922;2022-12-18T12:12:58;102336.19;;;-1.22;100.00
61697;BME280;47610;52.252;20.922;2022-12-18T12:18:33;102329.44;;;-1.16;100.00
61697;BME280;47610;52.252;20.922;2022-12-18T12:24:03;102330.05;;;-1.18;100.00
61697;BME280;47610;52.252;20.922;2022-12-18T12:29:42;102343.17;;;-1.26;100.00
61697;BME280;47610;52.252;20.922;2022-12-18T12:35:15;102349.96;;;-1.34;100.00
61697;BME280;47610;52.252;20.922;2022-12-18T12:40:47;102358.18;;;-1.48;100.00
61697;BME280;47610;52.252;20.922;2022-12-18T12:46:13;102367.14;;;-1.58;100.00
61697;BME280;47610;52.252;20.922;2022-12-18T12:51:38;102362.00;;;-1.60;100.00
61697;BME280;47610;52.252;20.922;2022-12-18T12:57:08;102372.20;;;-1.64;100.00
61697;BME280;47610;52.252;20.922;2022-12-18T13:02:35;102391.66;;;-1.65;100.00
61697;BME280;47610;52.252;20.922;2022-12-18T13:08:04;102398.90;;;-1.77;100.00
61697;BME280;47610;52.252;20.922;2022-12-18T13:13:51;102405.80;;;-1.87;100.00
61697;BME280;47610;52.252;20.922;2022-12-18T13:19:25;102415.78;;;-1.94;100.00
61697;BME280;47610;52.252;20.922;2022-12-18T13:24:48;102422.09;;;-2.02;100.00
61697;BME280;47610;52.252;20.922;2022-12-18T13:30:46;102421.73;;;-2.09;100.00
61697;BME280;47610;52.252;20.922;2022-12-18T13:36:23;102430.20;;;-2.25;100.00
61697;BME280;47610;52.252;20.922;2022-12-18T13:41:48;102437.04;;;-2.47;100.00
61697;BME280;47610;52.252;20.922;2022-12-18T13:47:28;102439.64;;;-2.62;100.00
61697;BME280;47610;52.252;20.922;2022-12-18T13:52:55;102443.80;;;-2.76;100.00
61697;BME280;47610;52.252;20.922;2022-12-18T13:58:18;102437.62;;;-2.79;100.00
61697;BME280;47610;52.252;20.922;2022-12-18T14:03:40;102451.57;;;-2.76;100.00
61697;BME280;47610;52.252;20.922;2022-12-18T14:09:01;102456.20;;;-2.82;100.00
61697;BME280;47610;52.252;20.922;2022-12-18T14:19:46;102465.38;;;-2.82;100.00
61697;BME280;47610;52.252;20.922;2022-12-18T14:25:19;102463.20;;;-2.86;100.00
61697;BME280;47610;52.252;20.922;2022-12-18T14:30:43;102461.09;;;-2.87;100.00
61697;BME280;47610;52.252;20.922;2022-12-18T14:36:13;102456.04;;;-2.89;100.00
61697;BME280;47610;52.252;20.922;2022-12-18T14:41:37;102462.70;;;-2.89;100.00
61697;BME280;47610;52.252;20.922;2022-12-18T14:46:59;102464.34;;;-2.87;100.00
61697;BME280;47610;52.252;20.922;2022-12-18T14:52:25;102479.67;;;-2.86;100.00
61697;BME280;47610;52.252;20.922;2022-12-18T14:57:51;102484.77;;;-2.86;100.00
61697;BME280;47610;52.252;20.922;2022-12-18T15:03:13;102478.70;;;-2.97;100.00
61697;BME280;47610;52.252;20.922;2022-12-18T15:08:39;102487.09;;;-3.09;100.00
61697;BME280;47610;52.252;20.922;2022-12-18T15:14:29;102499.58;;;-3.14;100.00
61697;BME280;47610;52.252;20.922;2022-12-18T15:19:57;102496.59;;;-3.12;100.00
61697;BME280;47610;52.252;20.922;2022-12-18T15:25:29;102495.52;;;-3.14;100.00
61697;BME280;47610;52.252;20.922;2022-12-18T15:31:05;102490.23;;;-3.12;100.00
61697;BME280;47610;52.252;20.922;2022-12-18T15:36:27;102498.48;;;-3.07;100.00
61697;BME280;47610;52.252;20.922;2022-12-18T15:41:50;102506.06;;;-3.10;100.00
61697;BME280;47610;52.252;20.922;2022-12-18T15:47:13;102509.05;;;-3.11;100.00
61697;BME280;47610;52.252;20.922;2022-12-18T15:52:41;102508.05;;;-3.08;100.00
61697;BME280;47610;52.252;20.922;2022-12-18T15:58:05;102511.34;;;-3.04;100.00
61697;BME280;47610;52.252;20.922;2022-12-18T16:03:28;102513.35;;;-2.99;100.00
61697;BME280;47610;52.252;20.922;2022-12-18T16:08:49;102515.66;;;-2.96;100.00
61697;BME280;47610;52.252;20.922;2022-12-18T16:14:20;102516.52;;;-3.00;100.00
61697;BME280;47610;52.252;20.922;2022-12-18T16:19:45;102521.39;;;-3.02;100.00
61697;BME280;47610;52.252;20.922;2022-12-18T16:25:08;102516.04;;;-3.00;100.00
61697;BME280;47610;52.252;20.922;2022-12-18T16:36:00;102514.19;;;-3.10;100.00
61697;BME280;47610;52.252;20.922;2022-12-18T16:41:22;102511.56;;;-3.32;100.00
61697;BME280;47610;52.252;20.922;2022-12-18T16:46:46;102514.86;;;-3.41;100.00
61697;BME280;47610;52.252;20.922;2022-12-18T16:52:08;102519.48;;;-3.53;100.00
61697;BME280;47610;52.252;20.922;2022-12-18T16:57:31;102535.17;;;-3.77;100.00
61697;BME280;47610;52.252;20.922;2022-12-18T17:02:53;102552.98;;;-3.99;100.00
61697;BME280;47610;52.252;20.922;2022-12-18T17:08:16;102547.63;;;-4.10;100.00
61697;BME280;47610;52.252;20.922;2022-12-18T17:13:39;102543.73;;;-4.16;100.00
61697;BME280;47610;52.252;20.922;2022-12-18T17:19:01;102554.29;;;-4.13;100.00
61697;BME280;47610;52.252;20.922;2022-12-18T17:24:23;102548.65;;;-4.23;100.00
61697;BME280;47610;52.252;20.922;2022-12-18T17:29:45;102548.78;;;-4.31;100.00
61697;BME280;47610;52.252;20.922;2022-12-18T17:35:09;102550.77;;;-4.31;100.00
61697;BME280;47610;52.252;20.922;2022-12-18T17:40:32;102549.36;;;-4.30;100.00
61697;BME280;47610;52.252;20.922;2022-12-18T17:45:55;102552.77;;;-4.25;100.00
61697;BME280;47610;52.252;20.922;2022-12-18T17:51:18;102561.83;;;-4.24;100.00
61697;BME280;47610;52.252;20.922;2022-12-18T17:56:41;102571.92;;;-4.31;100.00
61697;BME280;47610;52.252;20.922;2022-12-18T18:02:03;102579.13;;;-4.41;100.00
61697;BME280;47610;52.252;20.922;2022-12-18T18:07:25;102576.88;;;-4.44;100.00
61697;BME280;47610;52.252;20.922;2022-12-18T18:12:48;102573.23;;;-4.50;100.00
61697;BME280;47610;52.252;20.922;2022-12-18T18:18:10;102565.74;;;-4.55;100.00
61697;BME280;47610;52.252;20.922;2022-12-18T18:23:33;102565.97;;;-4.60;100.00
61697;BME280;47610;52.252;20.922;2022-12-18T18:28:58;102576.02;;;-4.65;100.00
61697;BME280;47610;52.252;20.922;2022-12-18T18:34:21;102571.44;;;-4.79;100.00
61697;BME280;47610;52.252;20.922;2022-12-18T18:39:44;102572.26;;;-4.89;100.00
61697;BME280;47610;52.252;20.922;2022-12-18T18:45:05;102565.61;;;-4.94;100.00
61697;BME280;47610;52.252;20.922;2022-12-18T18:59:30;102557.78;;;-5.06;100.00
61697;BME280;47610;52.252;20.922;2022-12-18T19:04:52;102556.84;;;-5.22;100.00
61697;BME280;47610;52.252;20.922;2022-12-18T19:10:16;102589.45;;;-5.33;100.00
61697;BME280;47610;52.252;20.922;2022-12-18T19:15:39;102570.73;;;-5.32;100.00
61697;BME280;47610;52.252;20.922;2022-12-18T19:21:04;102567.84;;;-5.34;100.00
61697;BME280;47610;52.252;20.922;2022-12-18T19:26:27;102571.06;;;-5.37;100.00
61697;BME280;47610;52.252;20.922;2022-12-18T19:31:49;102585.96;;;-5.42;100.00
61697;BME280;47610;52.252;20.922;2022-12-18T19:37:12;102602.09;;;-5.52;100.00
61697;BME280;47610;52.252;20.922;2022-12-18T19:42:35;102607.02;;;-5.62;100.00
61697;BME280;47610;52.252;20.922;2022-12-18T19:47:57;102599.03;;;-5.68;100.00
61697;BME280;47610;52.252;20.922;2022-12-18T19:53:19;102602.77;;;-5.73;100.00
61697;BME280;47610;52.252;20.922;2022-12-18T19:58:41;102595.20;;;-5.77;100.00
61697;BME280;47610;52.252;20.922;2022-12-18T20:04:05;102593.56;;;-5.90;100.00
61697;BME280;47610;52.252;20.922;2022-12-18T20:09:27;102596.08;;;-6.07;100.00
61697;BME280;47610;52.252;20.922;2022-12-18T20:14:49;102593.90;;;-6.16;100.00
61697;BME280;47610;52.252;20.922;2022-12-18T20:20:13;102587.13;;;-6.19;100.00
61697;BME280;47610;52.252;20.922;2022-12-18T20:25:39;102596.96;;;-6.17;100.00
61697;BME280;47610;52.252;20.922;2022-12-18T20:31:03;102601.47;;;-6.22;100.00
61697;BME280;47610;52.252;20.922;2022-12-18T20:36:26;102599.19;;;-6.21;100.00
61697;BME280;47610;52.252;20.922;2022-12-18T20:41:49;102605.31;;;-6.19;100.00
61697;BME280;47610;52.252;20.922;2022-12-18T20:47:12;102619.53;;;-6.20;100.00
61697;BME280;47610;52.252;20.922;2022-12-18T20:52:35;102628.61;;;-6.15;100.00
61697;BME280;47610;52.252;20.922;2022-12-18T20:58:01;102625.02;;;-6.09;100.00
61697;BME280;47610;52.252;20.922;2022-12-18T21:03:23;102628.46;;;-6.10;100.00
61697;BME280;47610;52.252;20.922;2022-12-18T21:08:45;102631.21;;;-6.01;100.00
61697;BME280;47610;52.252;20.922;2022-12-18T21:16:11;102625.99;;;-5.79;100.00
61697;BME280;47610;52.252;20.922;2022-12-18T21:21:34;102631.27;;;-5.69;100.00
61697;BME280;47610;52.252;20.922;2022-12-18T21:26:56;102624.38;;;-5.62;100.00
61697;BME280;47610;52.252;20.922;2022-12-18T21:32:19;102611.65;;;-5.62;100.00
61697;BME280;47610;52.252;20.922;2022-12-18T21:37:42;102609.88;;;-5.60;100.00
61697;BME280;47610;52.252;20.922;2022-12-18T21:43:05;102596.95;;;-5.64;100.00
61697;BME280;47610;52.252;20.922;2022-12-18T21:48:27;102590.29;;;-5.73;100.00
61697;BME280;47610;52.252;20.922;2022-12-18T21:53:49;102576.83;;;-5.84;100.00
61697;BME280;47610;52.252;20.922;2022-12-18T21:59:13;102561.08;;;-5.86;100.00
61697;BME280;47610;52.252;20.922;2022-12-18T22:04:36;102542.40;;;-5.83;100.00
61697;BME280;47610;52.252;20.922;2022-12-18T22:09:58;102537.56;;;-5.81;100.00
61697;BME280;47610;52.252;20.922;2022-12-18T22:15:21;102521.73;;;-5.84;100.00
61697;BME280;47610;52.252;20.922;2022-12-18T22:20:43;102519.20;;;-5.93;100.00
61697;BME280;47610;52.252;20.922;2022-12-18T22:26:05;102514.73;;;-6.00;100.00
61697;BME280;47610;52.252;20.922;2022-12-18T22:31:27;102520.66;;;-6.03;100.00
61697;BME280;47610;52.252;20.922;2022-12-18T22:36:49;102522.98;;;-6.03;100.00
61697;BME280;47610;52.252;20.922;2022-12-18T22:42:11;102521.13;;;-6.00;100.00
61697;BME280;47610;52.252;20.922;2022-12-18T22:47:33;102523.66;;;-6.00;100.00
61697;BME280;47610;52.252;20.922;2022-12-18T22:52:55;102513.24;;;-6.06;100.00
61697;BME280;47610;52.252;20.922;2022-12-18T22:58:17;102518.54;;;-6.13;100.00
61697;BME280;47610;52.252;20.922;2022-12-18T23:03:39;102520.90;;;-6.11;100.00
61697;BME280;47610;52.252;20.922;2022-12-18T23:09:01;102516.86;;;-6.02;100.00
61697;BME280;47610;52.252;20.922;2022-12-18T23:14:23;102513.69;;;-5.96;100.00
61697;BME280;47610;52.252;20.922;2022-12-18T23:19:44;102509.58;;;-5.92;100.00
61697;BME280;47610;52.252;20.922;2022-12-18T23:25:05;102514.84;;;-5.97;100.00
61697;BME280;47610;52.252;20.922;2022-12-18T23:43:30;102497.45;;;-6.06;100.00
61697;BME280;47610;52.252;20.922;2022-12-18T23:48:52;102501.04;;;-6.08;100.00
61697;BME280;47610;52.252;20.922;2022-12-18T23:54:15;102493.01;;;-6.15;100.00
61697;BME280;47610;52.252;20.922;2022-12-18T23:59:37;102503.77;;;-6.28;100.00
